sensor_id;sensor_type;location;lat;lon;timestamp;pressure;altitude;pressure_sealevel;temperature;humidity
72226;BME280;60130;52.250;5.048;2023-08-07T00:00:00;1013.6;;;14.2;91.5
72226;BME280;60130;52.250;5.048;2023-08-07T00:05:00;1013.7;;;14.1;91.3
72226;BME280;60130;52.250;5.048;2023-08-07T00:10:00;1013.7;;;14.1;91.5
72226;BME280;60130;52.250;5.048;2023-08-07T00:15:00;1013.7;;;14.0;91.8
72226;BME280;60130;52.250;5.048;2023-08-07T00:20:00;1013.8;;;14.1;91.9
72226;BME280;60130;52.250;5.048;2023-08-07T00:25:00;1013.7;;;14.1;92.1
72226;BME280;60130;52.250;5.048;2023-08-07T00:30:00;1013.7;;;14.1;92.0
72226;BME280;60130;52.250;5.048;2023-08-07T00:35:00;1013.7;;;14.1;91.6
72226;BME280;60130;52.250;5.048;2023-08-07T00:40:00;1013.7;;;14.2;91.1
72226;BME280;60130;52.250;5.048;2023-08-07T00:45:00;1013.7;;;14.2;90.4
72226;BME280;60130;52.250;5.048;2023-08-07T00:50:01;1013.6;;;14.3;89.8
72226;BME280;60130;52.250;5.048;2023-08-07T00:55:00;1013.6;;;14.3;89.2
72226;BME280;60130;52.250;5.048;2023-08-07T01:00:01;1013.7;;;14.4;87.9
72226;BME280;60130;52.250;5.048;2023-08-07T01:05:00;1013.6;;;14.5;87.4
72226;BME280;60130;52.250;5.048;2023-08-07T01:10:00;1013.6;;;14.5;86.4
72226;BME280;60130;52.250;5.048;2023-08-07T01:15:05;1013.6;;;14.5;86.2
72226;BME280;60130;52.250;5.048;2023-08-07T01:20:00;1013.6;;;14.4;85.7
72226;BME280;60130;52.250;5.048;2023-08-07T01:25:00;1013.7;;;14.4;85.9
72226;BME280;60130;52.250;5.048;2023-08-07T01:30:06;1013.7;;;14.4;86.6
72226;BME280;60130;52.250;5.048;2023-08-07T01:35:01;1013.7;;;14.5;87.0
72226;BME280;60130;52.250;5.048;2023-08-07T01:40:01;1013.7;;;14.4;87.2
72226;BME280;60130;52.250;5.048;2023-08-07T01:45:00;1013.7;;;14.5;87.3
72226;BME280;60130;52.250;5.048;2023-08-07T01:50:00;1013.7;;;14.5;87.0
72226;BME280;60130;52.250;5.048;2023-08-07T01:55:00;1013.7;;;14.5;87.2
72226;BME280;60130;52.250;5.048;2023-08-07T02:00:00;1013.7;;;14.6;86.9
72226;BME280;60130;52.250;5.048;2023-08-07T02:05:00;1013.8;;;14.6;86.7
72226;BME280;60130;52.250;5.048;2023-08-07T02:10:00;1013.8;;;14.7;86.4
72226;BME280;60130;52.250;5.048;2023-08-07T02:15:00;1013.9;;;14.7;86.3
72226;BME280;60130;52.250;5.048;2023-08-07T02:20:00;1013.9;;;14.7;87.2
72226;BME280;60130;52.250;5.048;2023-08-07T02:25:00;1013.8;;;14.5;88.9
72226;BME280;60130;52.250;5.048;2023-08-07T02:30:00;1014.0;;;14.5;89.1
72226;BME280;60130;52.250;5.048;2023-08-07T02:35:00;1014.1;;;14.4;89.7
72226;BME280;60130;52.250;5.048;2023-08-07T02:40:00;1014.1;;;14.2;89.8
72226;BME280;60130;52.250;5.048;2023-08-07T02:45:00;1014.1;;;14.2;90.4
72226;BME280;60130;52.250;5.048;2023-08-07T02:50:00;1014.1;;;14.1;90.9
72226;BME280;60130;52.250;5.048;2023-08-07T02:55:00;1014.1;;;14.1;91.1
72226;BME280;60130;52.250;5.048;2023-08-07T03:00:00;1014.0;;;14.0;91.6
72226;BME280;60130;52.250;5.048;2023-08-07T03:05:00;1014.0;;;14.1;91.6
72226;BME280;60130;52.250;5.048;2023-08-07T03:10:00;1014.0;;;14.0;91.7
72226;BME280;60130;52.250;5.048;2023-08-07T03:15:00;1014.0;;;14.0;91.5
72226;BME280;60130;52.250;5.048;2023-08-07T03:20:00;1013.9;;;14.0;91.3
72226;BME280;60130;52.250;5.048;2023-08-07T03:25:00;1013.9;;;14.0;91.2
72226;BME280;60130;52.250;5.048;2023-08-07T03:30:00;1013.9;;;14.0;91.2
72226;BME280;60130;52.250;5.048;2023-08-07T03:35:00;1013.9;;;14.1;91.4
72226;BME280;60130;52.250;5.048;2023-08-07T03:40:00;1013.9;;;14.1;91.3
72226;BME280;60130;52.250;5.048;2023-08-07T03:45:00;1014.0;;;14.2;91.2
72226;BME280;60130;52.250;5.048;2023-08-07T03:50:00;1014.0;;;14.2;90.8
72226;BME280;60130;52.250;5.048;2023-08-07T03:55:00;1014.0;;;14.3;90.7
72226;BME280;60130;52.250;5.048;2023-08-07T04:00:00;1013.9;;;14.3;90.5
72226;BME280;60130;52.250;5.048;2023-08-07T04:05:00;1013.9;;;14.3;90.2
72226;BME280;60130;52.250;5.048;2023-08-07T04:10:00;1013.9;;;14.4;90.0
72226;BME280;60130;52.250;5.048;2023-08-07T04:15:00;1014.0;;;14.5;89.6
72226;BME280;60130;52.250;5.048;2023-08-07T04:20:00;1014.0;;;14.5;89.3
72226;BME280;60130;52.250;5.048;2023-08-07T04:25:00;1014.0;;;14.6;88.9
72226;BME280;60130;52.250;5.048;2023-08-07T04:30:00;1014.1;;;14.6;88.0
72226;BME280;60130;52.250;5.048;2023-08-07T04:35:00;1014.1;;;14.7;87.3
72226;BME280;60130;52.250;5.048;2023-08-07T04:40:00;1014.2;;;14.8;86.5
72226;BME280;60130;52.250;5.048;2023-08-07T04:45:00;1014.2;;;14.8;86.2
72226;BME280;60130;52.250;5.048;2023-08-07T04:50:00;1014.3;;;14.8;86.5
72226;BME280;60130;52.250;5.048;2023-08-07T04:55:00;1014.3;;;14.9;87.1
72226;BME280;60130;52.250;5.048;2023-08-07T05:00:00;1014.3;;;14.9;87.4
72226;BME280;60130;52.250;5.048;2023-08-07T05:05:00;1014.3;;;14.9;87.7
72226;BME280;60130;52.250;5.048;2023-08-07T05:10:01;1014.4;;;14.9;87.9
72226;BME280;60130;52.250;5.048;2023-08-07T05:15:00;1014.5;;;15.0;87.4
72226;BME280;60130;52.250;5.048;2023-08-07T05:20:00;1014.6;;;15.1;88.0
72226;BME280;60130;52.250;5.048;2023-08-07T05:25:00;1014.7;;;15.0;87.8
72226;BME280;60130;52.250;5.048;2023-08-07T05:30:00;1014.6;;;14.8;88.3
72226;BME280;60130;52.250;5.048;2023-08-07T05:35:00;1014.7;;;15.0;88.0
72226;BME280;60130;52.250;5.048;2023-08-07T05:40:00;1014.7;;;15.1;87.1
72226;BME280;60130;52.250;5.048;2023-08-07T05:45:00;1014.7;;;15.1;85.2
72226;BME280;60130;52.250;5.048;2023-08-07T05:50:00;1014.8;;;15.3;85.0
72226;BME280;60130;52.250;5.048;2023-08-07T05:55:00;1014.8;;;15.4;84.2
72226;BME280;60130;52.250;5.048;2023-08-07T06:00:00;1014.9;;;15.5;83.4
72226;BME280;60130;52.250;5.048;2023-08-07T06:05:00;1014.9;;;15.7;82.9
72226;BME280;60130;52.250;5.048;2023-08-07T06:10:00;1014.9;;;15.6;82.3
72226;BME280;60130;52.250;5.048;2023-08-07T06:15:00;1015.0;;;15.6;82.5
72226;BME280;60130;52.250;5.048;2023-08-07T06:20:00;1015.0;;;15.7;81.9
72226;BME280;60130;52.250;5.048;2023-08-07T06:25:00;1015.1;;;15.7;82.1
72226;BME280;60130;52.250;5.048;2023-08-07T06:30:00;1015.1;;;15.7;82.9
72226;BME280;60130;52.250;5.048;2023-08-07T06:35:00;1015.2;;;15.8;82.4
72226;BME280;60130;52.250;5.048;2023-08-07T06:40:00;1015.2;;;15.7;82.0
72226;BME280;60130;52.250;5.048;2023-08-07T06:45:00;1015.3;;;15.1;86.1
72226;BME280;60130;52.250;5.048;2023-08-07T06:50:00;1015.4;;;14.7;88.0
72226;BME280;60130;52.250;5.048;2023-08-07T06:55:00;1015.4;;;14.6;88.8
72226;BME280;60130;52.250;5.048;2023-08-07T07:00:00;1015.4;;;14.9;88.3
72226;BME280;60130;52.250;5.048;2023-08-07T07:05:00;1015.4;;;15.0;87.0
72226;BME280;60130;52.250;5.048;2023-08-07T07:10:00;1015.5;;;15.0;86.8
72226;BME280;60130;52.250;5.048;2023-08-07T07:15:00;1015.5;;;15.1;86.7
72226;BME280;60130;52.250;5.048;2023-08-07T07:20:00;1015.6;;;15.2;86.9
72226;BME280;60130;52.250;5.048;2023-08-07T07:25:00;1015.7;;;15.3;85.4
72226;BME280;60130;52.250;5.048;2023-08-07T07:30:00;1015.9;;;15.5;85.1
72226;BME280;60130;52.250;5.048;2023-08-07T07:35:00;1015.9;;;17.7;78.7
72226;BME280;60130;52.250;5.048;2023-08-07T07:40:00;1015.9;;;18.3;73.7
72226;BME280;60130;52.250;5.048;2023-08-07T07:45:00;1015.9;;;17.7;74.4
72226;BME280;60130;52.250;5.048;2023-08-07T07:50:08;1016.1;;;16.4;79.6
72226;BME280;60130;52.250;5.048;2023-08-07T07:55:00;1016.1;;;15.6;82.3
72226;BME280;60130;52.250;5.048;2023-08-07T08:00:00;1016.3;;;16.2;81.0
72226;BME280;60130;52.250;5.048;2023-08-07T08:05:00;1016.3;;;17.4;77.9
72226;BME280;60130;52.250;5.048;2023-08-07T08:10:00;1016.3;;;17.7;77.0
72226;BME280;60130;52.250;5.048;2023-08-07T08:15:00;1016.3;;;18.3;75.6
72226;BME280;60130;52.250;5.048;2023-08-07T08:20:00;1016.3;;;17.1;75.5
72226;BME280;60130;52.250;5.048;2023-08-07T08:25:00;1016.3;;;16.2;76.4
72226;BME280;60130;52.250;5.048;2023-08-07T08:30:01;1016.5;;;15.9;79.6
72226;BME280;60130;52.250;5.048;2023-08-07T08:35:00;1016.6;;;15.5;82.6
72226;BME280;60130;52.250;5.048;2023-08-07T08:40:00;1016.6;;;15.5;82.6
72226;BME280;60130;52.250;5.048;2023-08-07T08:45:00;1016.6;;;16.2;82.5
72226;BME280;60130;52.250;5.048;2023-08-07T08:50:02;1016.5;;;16.6;80.2
72226;BME280;60130;52.250;5.048;2023-08-07T08:55:01;1016.6;;;17.3;78.8
72226;BME280;60130;52.250;5.048;2023-08-07T09:00:00;1016.5;;;17.7;77.2
72226;BME280;60130;52.250;5.048;2023-08-07T09:05:00;1016.6;;;17.6;75.7
72226;BME280;60130;52.250;5.048;2023-08-07T09:10:02;1016.7;;;17.2;73.9
72226;BME280;60130;52.250;5.048;2023-08-07T09:15:03;1016.8;;;16.6;73.6
72226;BME280;60130;52.250;5.048;2023-08-07T09:20:00;1016.9;;;16.6;74.1
72226;BME280;60130;52.250;5.048;2023-08-07T09:25:00;1016.8;;;16.8;75.3
72226;BME280;60130;52.250;5.048;2023-08-07T09:30:00;1016.8;;;16.8;74.1
72226;BME280;60130;52.250;5.048;2023-08-07T09:35:02;1016.9;;;16.4;75.6
72226;BME280;60130;52.250;5.048;2023-08-07T09:40:00;1017.1;;;16.3;77.6
72226;BME280;60130;52.250;5.048;2023-08-07T09:45:00;1017.2;;;16.1;77.2
72226;BME280;60130;52.250;5.048;2023-08-07T09:50:00;1017.1;;;16.4;77.3
72226;BME280;60130;52.250;5.048;2023-08-07T09:55:00;1017.1;;;16.9;76.2
72226;BME280;60130;52.250;5.048;2023-08-07T10:00:00;1017.2;;;17.1;75.7
72226;BME280;60130;52.250;5.048;2023-08-07T10:05:00;1017.1;;;17.5;74.9
72226;BME280;60130;52.250;5.048;2023-08-07T10:10:02;1017.1;;;18.0;73.5
72226;BME280;60130;52.250;5.048;2023-08-07T10:15:00;1017.1;;;17.8;71.1
72226;BME280;60130;52.250;5.048;2023-08-07T10:20:00;1017.1;;;18.0;70.6
72226;BME280;60130;52.250;5.048;2023-08-07T10:25:01;1017.2;;;17.8;69.4
72226;BME280;60130;52.250;5.048;2023-08-07T10:30:02;1017.2;;;17.6;70.7
72226;BME280;60130;52.250;5.048;2023-08-07T10:35:03;1017.3;;;17.4;70.8
72226;BME280;60130;52.250;5.048;2023-08-07T10:40:02;1017.4;;;17.2;72.8
72226;BME280;60130;52.250;5.048;2023-08-07T10:45:01;1017.5;;;16.5;78.1
72226;BME280;60130;52.250;5.048;2023-08-07T10:50:00;1017.5;;;16.5;77.5
72226;BME280;60130;52.250;5.048;2023-08-07T10:55:00;1017.5;;;16.5;77.0
72226;BME280;60130;52.250;5.048;2023-08-07T11:00:02;1017.5;;;17.1;76.0
72226;BME280;60130;52.250;5.048;2023-08-07T11:05:00;1017.5;;;17.6;74.1
72226;BME280;60130;52.250;5.048;2023-08-07T11:10:00;1017.5;;;17.7;73.0
72226;BME280;60130;52.250;5.048;2023-08-07T11:15:00;1017.6;;;18.3;72.8
72226;BME280;60130;52.250;5.048;2023-08-07T11:20:01;1017.5;;;18.0;70.0
72226;BME280;60130;52.250;5.048;2023-08-07T11:25:01;1017.5;;;18.5;66.3
72226;BME280;60130;52.250;5.048;2023-08-07T11:30:00;1017.5;;;18.7;64.4
72226;BME280;60130;52.250;5.048;2023-08-07T11:35:00;1017.5;;;19.7;61.0
72226;BME280;60130;52.250;5.048;2023-08-07T11:40:01;1017.5;;;18.9;61.1
72226;BME280;60130;52.250;5.048;2023-08-07T11:45:01;1017.4;;;18.6;63.0
72226;BME280;60130;52.250;5.048;2023-08-07T11:50:01;1017.5;;;19.0;62.0
72226;BME280;60130;52.250;5.048;2023-08-07T11:55:01;1017.5;;;18.7;59.7
72226;BME280;60130;52.250;5.048;2023-08-07T12:00:00;1017.5;;;19.5;58.3
72226;BME280;60130;52.250;5.048;2023-08-07T12:05:00;1017.5;;;19.1;58.6
72226;BME280;60130;52.250;5.048;2023-08-07T12:10:01;1017.6;;;19.5;55.8
72226;BME280;60130;52.250;5.048;2023-08-07T12:15:00;1017.5;;;19.8;54.0
72226;BME280;60130;52.250;5.048;2023-08-07T12:20:00;1017.5;;;19.1;57.0
72226;BME280;60130;52.250;5.048;2023-08-07T12:25:00;1017.5;;;19.2;56.9
72226;BME280;60130;52.250;5.048;2023-08-07T12:30:00;1017.4;;;19.3;56.8
72226;BME280;60130;52.250;5.048;2023-08-07T12:35:00;1017.5;;;19.4;56.4
72226;BME280;60130;52.250;5.048;2023-08-07T12:40:00;1017.5;;;19.2;58.0
72226;BME280;60130;52.250;5.048;2023-08-07T12:45:00;1017.5;;;19.8;58.0
72226;BME280;60130;52.250;5.048;2023-08-07T12:50:00;1017.6;;;20.3;58.0
72226;BME280;60130;52.250;5.048;2023-08-07T12:55:00;1017.5;;;19.3;57.9
72226;BME280;60130;52.250;5.048;2023-08-07T13:00:00;1017.5;;;18.7;60.1
72226;BME280;60130;52.250;5.048;2023-08-07T13:05:00;1017.5;;;19.6;59.1
72226;BME280;60130;52.250;5.048;2023-08-07T13:10:00;1017.5;;;20.0;57.9
72226;BME280;60130;52.250;5.048;2023-08-07T13:15:00;1017.5;;;19.8;57.0
72226;BME280;60130;52.250;5.048;2023-08-07T13:20:01;1017.7;;;20.2;56.9
72226;BME280;60130;52.250;5.048;2023-08-07T13:25:00;1017.6;;;19.8;56.1
72226;BME280;60130;52.250;5.048;2023-08-07T13:30:00;1017.7;;;20.3;55.2
72226;BME280;60130;52.250;5.048;2023-08-07T13:35:00;1017.7;;;19.8;54.3
72226;BME280;60130;52.250;5.048;2023-08-07T13:40:00;1017.7;;;19.7;57.6
72226;BME280;60130;52.250;5.048;2023-08-07T13:45:01;1017.7;;;20.2;52.9
72226;BME280;60130;52.250;5.048;2023-08-07T13:50:00;1017.8;;;19.7;54.7
72226;BME280;60130;52.250;5.048;2023-08-07T13:55:00;1017.7;;;19.0;56.5
72226;BME280;60130;52.250;5.048;2023-08-07T14:00:00;1017.8;;;19.9;56.1
72226;BME280;60130;52.250;5.048;2023-08-07T14:05:00;1017.8;;;20.1;57.8
72226;BME280;60130;52.250;5.048;2023-08-07T14:10:00;1017.9;;;19.7;58.5
72226;BME280;60130;52.250;5.048;2023-08-07T14:15:00;1017.8;;;19.9;58.4
72226;BME280;60130;52.250;5.048;2023-08-07T14:20:00;1017.8;;;19.8;57.6
72226;BME280;60130;52.250;5.048;2023-08-07T14:25:00;1017.8;;;20.0;51.8
72226;BME280;60130;52.250;5.048;2023-08-07T14:30:00;1017.7;;;20.2;53.1
72226;BME280;60130;52.250;5.048;2023-08-07T14:35:00;1017.8;;;19.3;56.7
72226;BME280;60130;52.250;5.048;2023-08-07T14:40:02;1017.9;;;18.6;60.9
72226;BME280;60130;52.250;5.048;2023-08-07T14:45:00;1017.8;;;19.4;61.2
72226;BME280;60130;52.250;5.048;2023-08-07T14:50:00;1017.8;;;20.2;59.6
72226;BME280;60130;52.250;5.048;2023-08-07T14:55:00;1017.8;;;20.5;57.8
72226;BME280;60130;52.250;5.048;2023-08-07T15:00:00;1017.9;;;20.9;56.2
72226;BME280;60130;52.250;5.048;2023-08-07T15:05:00;1018.0;;;20.1;56.3
72226;BME280;60130;52.250;5.048;2023-08-07T15:10:00;1018.0;;;19.3;61.7
72226;BME280;60130;52.250;5.048;2023-08-07T15:15:00;1018.0;;;19.8;61.2
72226;BME280;60130;52.250;5.048;2023-08-07T15:20:00;1018.0;;;19.3;61.1
72226;BME280;60130;52.250;5.048;2023-08-07T15:25:00;1018.0;;;19.8;59.0
72226;BME280;60130;52.250;5.048;2023-08-07T15:30:00;1018.0;;;20.0;57.0
72226;BME280;60130;52.250;5.048;2023-08-07T15:35:00;1018.1;;;19.9;56.8
72226;BME280;60130;52.250;5.048;2023-08-07T15:40:00;1018.0;;;19.6;57.7
72226;BME280;60130;52.250;5.048;2023-08-07T15:45:00;1018.0;;;19.7;57.9
72226;BME280;60130;52.250;5.048;2023-08-07T15:50:00;1017.9;;;19.6;58.2
72226;BME280;60130;52.250;5.048;2023-08-07T15:55:00;1017.8;;;18.6;59.5
72226;BME280;60130;52.250;5.048;2023-08-07T16:00:00;1017.8;;;18.6;59.4
72226;BME280;60130;52.250;5.048;2023-08-07T16:05:00;1017.9;;;18.5;60.7
72226;BME280;60130;52.250;5.048;2023-08-07T16:10:00;1017.9;;;19.3;59.8
72226;BME280;60130;52.250;5.048;2023-08-07T16:15:00;1017.8;;;19.2;60.5
72226;BME280;60130;52.250;5.048;2023-08-07T16:20:00;1017.8;;;19.6;60.0
72226;BME280;60130;52.250;5.048;2023-08-07T16:25:00;1017.8;;;19.7;60.3
72226;BME280;60130;52.250;5.048;2023-08-07T16:30:02;1017.9;;;18.8;62.9
72226;BME280;60130;52.250;5.048;2023-08-07T16:35:00;1017.8;;;18.7;63.8
72226;BME280;60130;52.250;5.048;2023-08-07T16:40:01;1017.8;;;19.2;62.8
72226;BME280;60130;52.250;5.048;2023-08-07T16:45:00;1017.7;;;19.6;61.9
72226;BME280;60130;52.250;5.048;2023-08-07T16:50:00;1017.8;;;19.2;63.4
72226;BME280;60130;52.250;5.048;2023-08-07T16:55:00;1017.7;;;19.0;63.9
72226;BME280;60130;52.250;5.048;2023-08-07T17:00:00;1017.7;;;19.6;64.4
72226;BME280;60130;52.250;5.048;2023-08-07T17:05:00;1017.6;;;19.7;63.4
72226;BME280;60130;52.250;5.048;2023-08-07T17:10:00;1017.5;;;19.0;65.9
72226;BME280;60130;52.250;5.048;2023-08-07T17:15:00;1017.5;;;18.5;67.5
72226;BME280;60130;52.250;5.048;2023-08-07T17:20:00;1017.5;;;18.3;68.8
72226;BME280;60130;52.250;5.048;2023-08-07T17:25:00;1017.4;;;18.5;67.0
72226;BME280;60130;52.250;5.048;2023-08-07T17:30:00;1017.4;;;19.5;64.7
72226;BME280;60130;52.250;5.048;2023-08-07T17:35:00;1017.3;;;18.7;65.2
72226;BME280;60130;52.250;5.048;2023-08-07T17:40:00;1017.4;;;19.1;65.6
72226;BME280;60130;52.250;5.048;2023-08-07T17:45:00;1017.3;;;19.1;64.8
72226;BME280;60130;52.250;5.048;2023-08-07T17:50:00;1017.3;;;19.6;63.3
72226;BME280;60130;52.250;5.048;2023-08-07T17:55:00;1017.2;;;19.6;62.6
72226;BME280;60130;52.250;5.048;2023-08-07T18:00:00;1017.3;;;19.2;63.1
72226;BME280;60130;52.250;5.048;2023-08-07T18:05:00;1017.2;;;19.3;62.4
72226;BME280;60130;52.250;5.048;2023-08-07T18:10:01;1017.2;;;19.1;62.7
72226;BME280;60130;52.250;5.048;2023-08-07T18:15:00;1017.2;;;19.2;63.4
72226;BME280;60130;52.250;5.048;2023-08-07T18:20:00;1017.1;;;19.1;63.1
72226;BME280;60130;52.250;5.048;2023-08-07T18:25:00;1017.1;;;18.9;63.8
72226;BME280;60130;52.250;5.048;2023-08-07T18:30:00;1017.1;;;18.6;64.5
72226;BME280;60130;52.250;5.048;2023-08-07T18:35:00;1017.0;;;17.9;66.6
72226;BME280;60130;52.250;5.048;2023-08-07T18:40:00;1017.0;;;17.4;69.0
72226;BME280;60130;52.250;5.048;2023-08-07T18:45:00;1017.0;;;17.6;68.4
72226;BME280;60130;52.250;5.048;2023-08-07T18:50:00;1016.9;;;17.3;69.6
72226;BME280;60130;52.250;5.048;2023-08-07T18:55:00;1016.9;;;17.1;70.6
72226;BME280;60130;52.250;5.048;2023-08-07T19:00:00;1016.9;;;16.7;72.0
72226;BME280;60130;52.250;5.048;2023-08-07T19:05:00;1016.9;;;16.6;72.4
72226;BME280;60130;52.250;5.048;2023-08-07T19:10:00;1016.9;;;16.5;72.7
72226;BME280;60130;52.250;5.048;2023-08-07T19:15:01;1016.9;;;16.3;73.3
72226;BME280;60130;52.250;5.048;2023-08-07T19:20:00;1016.9;;;16.2;74.0
72226;BME280;60130;52.250;5.048;2023-08-07T19:25:00;1016.9;;;16.1;74.7
72226;BME280;60130;52.250;5.048;2023-08-07T19:30:00;1016.8;;;16.1;75.0
72226;BME280;60130;52.250;5.048;2023-08-07T19:35:00;1016.8;;;16.0;75.3
72226;BME280;60130;52.250;5.048;2023-08-07T19:40:00;1016.7;;;16.0;75.6
72226;BME280;60130;52.250;5.048;2023-08-07T19:45:00;1016.7;;;16.0;75.6
72226;BME280;60130;52.250;5.048;2023-08-07T19:50:00;1016.7;;;15.9;76.1
72226;BME280;60130;52.250;5.048;2023-08-07T19:55:00;1016.7;;;15.8;76.5
72226;BME280;60130;52.250;5.048;2023-08-07T20:00:00;1016.6;;;15.8;76.5
72226;BME280;60130;52.250;5.048;2023-08-07T20:05:00;1016.6;;;15.6;77.6
72226;BME280;60130;52.250;5.048;2023-08-07T20:10:00;1016.6;;;15.7;77.4
72226;BME280;60130;52.250;5.048;2023-08-07T20:15:00;1016.6;;;15.5;78.1
72226;BME280;60130;52.250;5.048;2023-08-07T20:20:00;1016.5;;;15.6;78.2
72226;BME280;60130;52.250;5.048;2023-08-07T20:25:00;1016.5;;;15.6;78.4
72226;BME280;60130;52.250;5.048;2023-08-07T20:30:02;1016.4;;;15.6;78.6
72226;BME280;60130;52.250;5.048;2023-08-07T20:35:00;1016.3;;;15.7;78.5
72226;BME280;60130;52.250;5.048;2023-08-07T20:40:00;1016.3;;;15.8;78.2
72226;BME280;60130;52.250;5.048;2023-08-07T20:45:00;1016.2;;;15.8;78.5
72226;BME280;60130;52.250;5.048;2023-08-07T20:50:00;1016.1;;;15.7;79.1
72226;BME280;60130;52.250;5.048;2023-08-07T20:55:00;1016.1;;;15.6;79.6
72226;BME280;60130;52.250;5.048;2023-08-07T21:00:00;1016.0;;;15.7;80.2
72226;BME280;60130;52.250;5.048;2023-08-07T21:05:00;1015.9;;;15.8;80.3
72226;BME280;60130;52.250;5.048;2023-08-07T21:10:00;1015.9;;;15.8;80.7
72226;BME280;60130;52.250;5.048;2023-08-07T21:15:00;1015.9;;;15.9;82.5
72226;BME280;60130;52.250;5.048;2023-08-07T21:20:00;1015.9;;;15.5;86.0
72226;BME280;60130;52.250;5.048;2023-08-07T21:25:00;1015.9;;;15.4;87.0
72226;BME280;60130;52.250;5.048;2023-08-07T21:30:00;1015.8;;;15.4;87.2
72226;BME280;60130;52.250;5.048;2023-08-07T21:35:00;1015.7;;;15.4;87.2
72226;BME280;60130;52.250;5.048;2023-08-07T21:40:00;1015.7;;;15.5;86.9
72226;BME280;60130;52.250;5.048;2023-08-07T21:45:01;1015.6;;;15.5;87.2
72226;BME280;60130;52.250;5.048;2023-08-07T21:50:00;1015.5;;;15.5;87.1
72226;BME280;60130;52.250;5.048;2023-08-07T21:55:00;1015.5;;;15.7;87.2
72226;BME280;60130;52.250;5.048;2023-08-07T22:00:00;1015.4;;;15.6;87.5
72226;BME280;60130;52.250;5.048;2023-08-07T22:05:00;1015.4;;;15.6;87.2
72226;BME280;60130;52.250;5.048;2023-08-07T22:10:00;1015.4;;;15.5;87.3
72226;BME280;60130;52.250;5.048;2023-08-07T22:15:01;1015.4;;;15.5;87.5
72226;BME280;60130;52.250;5.048;2023-08-07T22:20:00;1015.3;;;15.4;87.5
72226;BME280;60130;52.250;5.048;2023-08-07T22:25:00;1015.3;;;15.4;87.6
72226;BME280;60130;52.250;5.048;2023-08-07T22:30:00;1015.2;;;15.5;87.7
72226;BME280;60130;52.250;5.048;2023-08-07T22:35:00;1015.2;;;15.4;87.9
72226;BME280;60130;52.250;5.048;2023-08-07T22:40:00;1015.2;;;15.3;88.2
72226;BME280;60130;52.250;5.048;2023-08-07T22:45:00;1015.1;;;15.2;88.4
72226;BME280;60130;52.250;5.048;2023-08-07T22:50:00;1015.1;;;15.2;88.6
72226;BME280;60130;52.250;5.048;2023-08-07T22:55:00;1015.1;;;15.1;88.8
72226;BME280;60130;52.250;5.048;2023-08-07T23:00:00;1015.1;;;15.2;88.8
72226;BME280;60130;52.250;5.048;2023-08-07T23:05:00;1015.1;;;15.2;88.5
72226;BME280;60130;52.250;5.048;2023-08-07T23:10:00;1015.0;;;15.1;88.7
72226;BME280;60130;52.250;5.048;2023-08-07T23:15:00;1014.9;;;15.1;88.6
72226;BME280;60130;52.250;5.048;2023-08-07T23:20:00;1014.9;;;15.1;88.9
72226;BME280;60130;52.250;5.048;2023-08-07T23:25:00;1014.9;;;15.1;89.1
72226;BME280;60130;52.250;5.048;2023-08-07T23:30:00;1014.8;;;15.1;88.8
72226;BME280;60130;52.250;5.048;2023-08-07T23:35:00;1014.8;;;15.1;88.9
72226;BME280;60130;52.250;5.048;2023-08-07T23:40:00;1014.8;;;15.2;89.2
72226;BME280;60130;52.250;5.048;2023-08-07T23:45:00;1014.8;;;15.2;89.3
72226;BME280;60130;52.250;5.048;2023-08-07T23:50:00;1014.8;;;15.2;89.5
72226;BME280;60130;52.250;5.048;2023-08-07T23:55:00;1014.8;;;15.2;89.4
